sensor_id;sensor_type;location;lat;lon;timestamp;temperature;humidity
34833;DHT22;55941;50.800;4.342;2023-07-20T00:00:52;17.30;99.90
34833;DHT22;55941;50.800;4.342;2023-07-20T00:03:19;17.40;99.90
34833;DHT22;55941;50.800;4.342;2023-07-20T00:05:49;17.40;99.90
34833;DHT22;55941;50.800;4.342;2023-07-20T00:08:15;17.40;99.90
34833;DHT22;55941;50.800;4.342;2023-07-20T00:10:42;17.50;99.90
34833;DHT22;55941;50.800;4.342;2023-07-20T00:13:08;17.50;99.90
34833;DHT22;55941;50.800;4.342;2023-07-20T00:15:34;17.60;99.90
34833;DHT22;55941;50.800;4.342;2023-07-20T00:18:00;17.60;99.90
34833;DHT22;55941;50.800;4.342;2023-07-20T00:20:26;17.60;99.90
34833;DHT22;55941;50.800;4.342;2023-07-20T00:22:52;17.70;99.90
34833;DHT22;55941;50.800;4.342;2023-07-20T00:25:18;17.70;99.90
34833;DHT22;55941;50.800;4.342;2023-07-20T00:27:44;17.70;99.90
34833;DHT22;55941;50.800;4.342;2023-07-20T00:30:10;17.60;99.90
34833;DHT22;55941;50.800;4.342;2023-07-20T00:32:35;17.50;99.90
34833;DHT22;55941;50.800;4.342;2023-07-20T00:35:01;17.50;99.90
34833;DHT22;55941;50.800;4.342;2023-07-20T00:37:27;17.60;99.90
34833;DHT22;55941;50.800;4.342;2023-07-20T00:39:53;17.60;99.90
34833;DHT22;55941;50.800;4.342;2023-07-20T00:42:19;17.60;99.90
34833;DHT22;55941;50.800;4.342;2023-07-20T00:44:44;17.60;99.90
34833;DHT22;55941;50.800;4.342;2023-07-20T00:47:10;17.60;99.90
34833;DHT22;55941;50.800;4.342;2023-07-20T00:49:36;17.60;99.90
34833;DHT22;55941;50.800;4.342;2023-07-20T00:52:03;17.50;99.90
34833;DHT22;55941;50.800;4.342;2023-07-20T00:54:31;17.60;99.90
34833;DHT22;55941;50.800;4.342;2023-07-20T00:56:58;17.50;99.90
34833;DHT22;55941;50.800;4.342;2023-07-20T00:59:26;17.40;99.90
34833;DHT22;55941;50.800;4.342;2023-07-20T01:01:52;17.60;99.90
34833;DHT22;55941;50.800;4.342;2023-07-20T01:04:19;17.60;99.90
34833;DHT22;55941;50.800;4.342;2023-07-20T01:06:53;17.60;99.90
34833;DHT22;55941;50.800;4.342;2023-07-20T01:09:31;17.50;99.90
34833;DHT22;55941;50.800;4.342;2023-07-20T01:12:09;17.40;99.90
34833;DHT22;55941;50.800;4.342;2023-07-20T01:14:39;17.40;99.90
34833;DHT22;55941;50.800;4.342;2023-07-20T01:17:04;17.30;99.90
34833;DHT22;55941;50.800;4.342;2023-07-20T01:19:30;17.30;99.90
34833;DHT22;55941;50.800;4.342;2023-07-20T01:22:09;17.30;99.90
34833;DHT22;55941;50.800;4.342;2023-07-20T01:25:19;17.30;99.90
34833;DHT22;55941;50.800;4.342;2023-07-20T01:33:00;17.50;99.90
34833;DHT22;55941;50.800;4.342;2023-07-20T01:35:30;17.60;99.90
34833;DHT22;55941;50.800;4.342;2023-07-20T01:37:58;17.60;99.90
34833;DHT22;55941;50.800;4.342;2023-07-20T01:40:25;17.60;99.90
34833;DHT22;55941;50.800;4.342;2023-07-20T01:42:51;17.50;99.90
34833;DHT22;55941;50.800;4.342;2023-07-20T01:45:17;17.60;99.90
34833;DHT22;55941;50.800;4.342;2023-07-20T01:47:43;17.70;99.90
34833;DHT22;55941;50.800;4.342;2023-07-20T01:50:10;17.60;99.90
34833;DHT22;55941;50.800;4.342;2023-07-20T01:52:35;17.60;99.90
34833;DHT22;55941;50.800;4.342;2023-07-20T01:55:01;17.50;99.90
34833;DHT22;55941;50.800;4.342;2023-07-20T01:57:27;17.50;99.90
34833;DHT22;55941;50.800;4.342;2023-07-20T01:59:53;17.60;99.90
34833;DHT22;55941;50.800;4.342;2023-07-20T02:02:18;17.70;99.90
34833;DHT22;55941;50.800;4.342;2023-07-20T02:04:46;17.70;99.90
34833;DHT22;55941;50.800;4.342;2023-07-20T02:07:11;17.70;99.90
34833;DHT22;55941;50.800;4.342;2023-07-20T02:09:37;17.40;99.90
34833;DHT22;55941;50.800;4.342;2023-07-20T02:12:03;17.40;99.90
34833;DHT22;55941;50.800;4.342;2023-07-20T02:14:28;17.60;99.90
34833;DHT22;55941;50.800;4.342;2023-07-20T02:16:54;17.80;99.90
34833;DHT22;55941;50.800;4.342;2023-07-20T02:19:25;17.80;99.90
34833;DHT22;55941;50.800;4.342;2023-07-20T02:21:52;17.70;99.90
34833;DHT22;55941;50.800;4.342;2023-07-20T02:24:18;17.70;99.90
34833;DHT22;55941;50.800;4.342;2023-07-20T02:26:45;17.60;99.90
34833;DHT22;55941;50.800;4.342;2023-07-20T02:29:11;17.40;99.90
34833;DHT22;55941;50.800;4.342;2023-07-20T02:31:39;17.20;99.90
34833;DHT22;55941;50.800;4.342;2023-07-20T02:34:08;17.10;99.90
34833;DHT22;55941;50.800;4.342;2023-07-20T02:36:34;17.10;99.90
34833;DHT22;55941;50.800;4.342;2023-07-20T02:39:00;17.00;99.90
34833;DHT22;55941;50.800;4.342;2023-07-20T02:41:30;17.10;99.90
34833;DHT22;55941;50.800;4.342;2023-07-20T02:43:56;17.10;99.90
34833;DHT22;55941;50.800;4.342;2023-07-20T02:46:22;17.00;99.90
34833;DHT22;55941;50.800;4.342;2023-07-20T02:48:47;17.10;99.90
34833;DHT22;55941;50.800;4.342;2023-07-20T02:51:13;17.30;99.90
34833;DHT22;55941;50.800;4.342;2023-07-20T02:53:40;17.30;99.90
34833;DHT22;55941;50.800;4.342;2023-07-20T02:56:07;17.30;99.90
34833;DHT22;55941;50.800;4.342;2023-07-20T02:58:34;17.20;99.90
34833;DHT22;55941;50.800;4.342;2023-07-20T03:01:02;17.30;99.90
34833;DHT22;55941;50.800;4.342;2023-07-20T03:03:28;17.50;99.90
34833;DHT22;55941;50.800;4.342;2023-07-20T03:05:53;17.60;99.90
34833;DHT22;55941;50.800;4.342;2023-07-20T03:08:21;17.50;99.90
34833;DHT22;55941;50.800;4.342;2023-07-20T03:10:47;17.40;99.90
34833;DHT22;55941;50.800;4.342;2023-07-20T03:13:12;17.60;99.90
34833;DHT22;55941;50.800;4.342;2023-07-20T03:15:39;17.30;99.90
34833;DHT22;55941;50.800;4.342;2023-07-20T03:18:05;17.20;99.90
34833;DHT22;55941;50.800;4.342;2023-07-20T03:20:31;17.10;99.90
34833;DHT22;55941;50.800;4.342;2023-07-20T03:22:57;17.40;99.90
34833;DHT22;55941;50.800;4.342;2023-07-20T03:25:22;17.60;99.90
34833;DHT22;55941;50.800;4.342;2023-07-20T03:27:48;17.50;99.90
34833;DHT22;55941;50.800;4.342;2023-07-20T03:30:14;17.40;99.90
34833;DHT22;55941;50.800;4.342;2023-07-20T03:32:40;17.40;99.90
34833;DHT22;55941;50.800;4.342;2023-07-20T03:35:06;17.40;99.90
34833;DHT22;55941;50.800;4.342;2023-07-20T03:37:32;17.50;99.90
34833;DHT22;55941;50.800;4.342;2023-07-20T03:40:00;17.50;99.90
34833;DHT22;55941;50.800;4.342;2023-07-20T03:42:26;17.40;99.90
34833;DHT22;55941;50.800;4.342;2023-07-20T03:44:51;17.30;99.90
34833;DHT22;55941;50.800;4.342;2023-07-20T03:47:17;17.10;99.90
34833;DHT22;55941;50.800;4.342;2023-07-20T03:49:42;17.00;99.90
34833;DHT22;55941;50.800;4.342;2023-07-20T03:52:08;17.00;99.90
34833;DHT22;55941;50.800;4.342;2023-07-20T03:54:34;16.80;99.90
34833;DHT22;55941;50.800;4.342;2023-07-20T03:56:59;16.90;99.90
34833;DHT22;55941;50.800;4.342;2023-07-20T03:59:26;17.30;99.90
34833;DHT22;55941;50.800;4.342;2023-07-20T04:01:52;17.20;99.90
34833;DHT22;55941;50.800;4.342;2023-07-20T04:04:17;17.30;99.90
34833;DHT22;55941;50.800;4.342;2023-07-20T04:06:43;17.30;99.90
34833;DHT22;55941;50.800;4.342;2023-07-20T04:09:10;17.20;99.90
34833;DHT22;55941;50.800;4.342;2023-07-20T04:11:36;17.10;99.90
34833;DHT22;55941;50.800;4.342;2023-07-20T04:14:02;17.30;99.90
34833;DHT22;55941;50.800;4.342;2023-07-20T04:16:28;17.40;99.90
34833;DHT22;55941;50.800;4.342;2023-07-20T04:18:57;17.30;99.90
34833;DHT22;55941;50.800;4.342;2023-07-20T04:21:25;17.20;99.90
34833;DHT22;55941;50.800;4.342;2023-07-20T04:23:51;17.10;99.90
34833;DHT22;55941;50.800;4.342;2023-07-20T04:26:16;17.10;99.90
34833;DHT22;55941;50.800;4.342;2023-07-20T04:28:42;17.20;99.90
34833;DHT22;55941;50.800;4.342;2023-07-20T04:31:12;17.40;99.90
34833;DHT22;55941;50.800;4.342;2023-07-20T04:33:38;17.50;99.90
34833;DHT22;55941;50.800;4.342;2023-07-20T04:36:04;17.50;99.90
34833;DHT22;55941;50.800;4.342;2023-07-20T04:38:30;17.30;99.90
34833;DHT22;55941;50.800;4.342;2023-07-20T04:40:56;17.20;99.90
34833;DHT22;55941;50.800;4.342;2023-07-20T04:43:21;17.20;99.90
34833;DHT22;55941;50.800;4.342;2023-07-20T04:45:47;17.40;99.90
34833;DHT22;55941;50.800;4.342;2023-07-20T04:48:14;17.40;99.90
34833;DHT22;55941;50.800;4.342;2023-07-20T04:50:41;17.30;99.90
34833;DHT22;55941;50.800;4.342;2023-07-20T04:53:09;17.40;99.90
34833;DHT22;55941;50.800;4.342;2023-07-20T04:55:36;17.30;99.90
34833;DHT22;55941;50.800;4.342;2023-07-20T04:58:03;17.40;99.90
34833;DHT22;55941;50.800;4.342;2023-07-20T05:00:37;17.50;99.90
34833;DHT22;55941;50.800;4.342;2023-07-20T05:03:04;17.20;99.90
34833;DHT22;55941;50.800;4.342;2023-07-20T05:05:31;17.20;99.90
34833;DHT22;55941;50.800;4.342;2023-07-20T05:07:57;17.30;99.90
34833;DHT22;55941;50.800;4.342;2023-07-20T05:10:23;17.50;99.90
34833;DHT22;55941;50.800;4.342;2023-07-20T05:12:49;17.60;99.90
34833;DHT22;55941;50.800;4.342;2023-07-20T05:15:15;17.40;99.90
34833;DHT22;55941;50.800;4.342;2023-07-20T05:17:41;17.20;99.90
34833;DHT22;55941;50.800;4.342;2023-07-20T05:20:07;17.20;99.90
34833;DHT22;55941;50.800;4.342;2023-07-20T05:22:36;17.50;99.90
34833;DHT22;55941;50.800;4.342;2023-07-20T05:25:08;17.50;99.90
34833;DHT22;55941;50.800;4.342;2023-07-20T05:27:39;17.60;99.90
34833;DHT22;55941;50.800;4.342;2023-07-20T05:30:06;17.60;99.90
34833;DHT22;55941;50.800;4.342;2023-07-20T05:32:33;17.50;99.90
34833;DHT22;55941;50.800;4.342;2023-07-20T05:34:58;17.30;99.90
34833;DHT22;55941;50.800;4.342;2023-07-20T05:37:25;17.20;99.90
34833;DHT22;55941;50.800;4.342;2023-07-20T05:39:51;17.30;99.90
34833;DHT22;55941;50.800;4.342;2023-07-20T05:42:16;17.40;99.90
34833;DHT22;55941;50.800;4.342;2023-07-20T05:44:42;17.60;99.90
34833;DHT22;55941;50.800;4.342;2023-07-20T05:47:08;17.60;99.90
34833;DHT22;55941;50.800;4.342;2023-07-20T05:49:35;17.70;99.90
34833;DHT22;55941;50.800;4.342;2023-07-20T05:52:00;17.70;99.90
34833;DHT22;55941;50.800;4.342;2023-07-20T05:54:27;17.70;99.90
34833;DHT22;55941;50.800;4.342;2023-07-20T05:56:53;17.80;99.90
34833;DHT22;55941;50.800;4.342;2023-07-20T05:59:18;18.00;99.90
34833;DHT22;55941;50.800;4.342;2023-07-20T06:01:45;17.90;99.90
34833;DHT22;55941;50.800;4.342;2023-07-20T06:04:11;18.10;99.90
34833;DHT22;55941;50.800;4.342;2023-07-20T06:06:36;17.90;99.90
34833;DHT22;55941;50.800;4.342;2023-07-20T06:09:02;17.90;99.90
34833;DHT22;55941;50.800;4.342;2023-07-20T06:11:35;18.10;99.90
34833;DHT22;55941;50.800;4.342;2023-07-20T06:14:01;18.10;99.90
34833;DHT22;55941;50.800;4.342;2023-07-20T06:16:26;18.10;99.90
34833;DHT22;55941;50.800;4.342;2023-07-20T06:18:52;18.00;99.90
34833;DHT22;55941;50.800;4.342;2023-07-20T06:21:18;17.90;99.90
34833;DHT22;55941;50.800;4.342;2023-07-20T06:23:43;18.00;99.90
34833;DHT22;55941;50.800;4.342;2023-07-20T06:26:09;18.10;99.90
34833;DHT22;55941;50.800;4.342;2023-07-20T06:28:35;18.10;99.90
34833;DHT22;55941;50.800;4.342;2023-07-20T06:31:02;18.50;99.90
34833;DHT22;55941;50.800;4.342;2023-07-20T06:33:28;18.70;99.90
34833;DHT22;55941;50.800;4.342;2023-07-20T06:35:54;18.50;99.90
34833;DHT22;55941;50.800;4.342;2023-07-20T06:38:20;18.40;99.90
34833;DHT22;55941;50.800;4.342;2023-07-20T06:40:49;18.20;99.90
34833;DHT22;55941;50.800;4.342;2023-07-20T06:43:15;18.00;99.90
34833;DHT22;55941;50.800;4.342;2023-07-20T06:45:41;17.90;99.90
34833;DHT22;55941;50.800;4.342;2023-07-20T06:48:07;18.00;99.90
34833;DHT22;55941;50.800;4.342;2023-07-20T06:50:33;18.00;99.90
34833;DHT22;55941;50.800;4.342;2023-07-20T06:52:59;18.10;99.90
34833;DHT22;55941;50.800;4.342;2023-07-20T06:55:25;18.00;99.90
34833;DHT22;55941;50.800;4.342;2023-07-20T06:57:51;18.00;99.90
34833;DHT22;55941;50.800;4.342;2023-07-20T07:00:17;18.10;99.90
34833;DHT22;55941;50.800;4.342;2023-07-20T07:02:43;18.20;99.90
34833;DHT22;55941;50.800;4.342;2023-07-20T07:05:10;18.20;99.90
34833;DHT22;55941;50.800;4.342;2023-07-20T07:07:36;18.10;99.90
34833;DHT22;55941;50.800;4.342;2023-07-20T07:10:04;18.20;99.90
34833;DHT22;55941;50.800;4.342;2023-07-20T07:12:30;18.40;99.90
34833;DHT22;55941;50.800;4.342;2023-07-20T07:14:56;18.50;99.90
34833;DHT22;55941;50.800;4.342;2023-07-20T07:17:22;18.40;99.90
34833;DHT22;55941;50.800;4.342;2023-07-20T07:19:47;18.20;99.90
34833;DHT22;55941;50.800;4.342;2023-07-20T07:22:13;18.30;99.90
34833;DHT22;55941;50.800;4.342;2023-07-20T07:24:39;18.20;99.90
34833;DHT22;55941;50.800;4.342;2023-07-20T07:27:08;18.20;99.90
34833;DHT22;55941;50.800;4.342;2023-07-20T07:29:34;18.10;99.90
34833;DHT22;55941;50.800;4.342;2023-07-20T07:32:01;18.20;99.90
34833;DHT22;55941;50.800;4.342;2023-07-20T07:34:27;18.40;99.90
34833;DHT22;55941;50.800;4.342;2023-07-20T07:36:53;18.40;99.90
34833;DHT22;55941;50.800;4.342;2023-07-20T07:39:19;18.40;99.90
34833;DHT22;55941;50.800;4.342;2023-07-20T07:41:46;18.30;99.90
34833;DHT22;55941;50.800;4.342;2023-07-20T07:44:12;18.40;99.90
34833;DHT22;55941;50.800;4.342;2023-07-20T07:46:37;18.50;99.90
34833;DHT22;55941;50.800;4.342;2023-07-20T07:49:03;18.70;99.90
34833;DHT22;55941;50.800;4.342;2023-07-20T07:51:29;18.90;99.90
34833;DHT22;55941;50.800;4.342;2023-07-20T07:53:55;19.10;99.90
34833;DHT22;55941;50.800;4.342;2023-07-20T07:56:22;19.30;99.90
34833;DHT22;55941;50.800;4.342;2023-07-20T07:58:51;19.30;99.90
34833;DHT22;55941;50.800;4.342;2023-07-20T08:01:20;19.60;99.90
34833;DHT22;55941;50.800;4.342;2023-07-20T08:03:45;19.80;99.90
34833;DHT22;55941;50.800;4.342;2023-07-20T08:06:14;19.70;99.90
34833;DHT22;55941;50.800;4.342;2023-07-20T08:08:40;19.50;99.90
34833;DHT22;55941;50.800;4.342;2023-07-20T08:11:05;19.30;99.90
34833;DHT22;55941;50.800;4.342;2023-07-20T08:13:31;19.20;99.90
34833;DHT22;55941;50.800;4.342;2023-07-20T08:15:58;19.10;99.90
34833;DHT22;55941;50.800;4.342;2023-07-20T08:18:25;19.10;99.90
34833;DHT22;55941;50.800;4.342;2023-07-20T08:20:51;19.10;99.90
34833;DHT22;55941;50.800;4.342;2023-07-20T08:23:17;19.10;99.90
34833;DHT22;55941;50.800;4.342;2023-07-20T08:25:43;18.90;99.90
34833;DHT22;55941;50.800;4.342;2023-07-20T08:28:14;18.80;99.90
34833;DHT22;55941;50.800;4.342;2023-07-20T08:30:46;18.80;99.90
34833;DHT22;55941;50.800;4.342;2023-07-20T08:33:16;19.00;99.90
34833;DHT22;55941;50.800;4.342;2023-07-20T08:35:44;19.10;99.90
34833;DHT22;55941;50.800;4.342;2023-07-20T08:38:13;19.40;99.90
34833;DHT22;55941;50.800;4.342;2023-07-20T08:40:40;19.50;99.90
34833;DHT22;55941;50.800;4.342;2023-07-20T08:43:09;19.60;99.90
34833;DHT22;55941;50.800;4.342;2023-07-20T08:45:38;19.70;99.90
34833;DHT22;55941;50.800;4.342;2023-07-20T08:48:06;19.90;99.90
34833;DHT22;55941;50.800;4.342;2023-07-20T08:50:34;20.00;99.90
34833;DHT22;55941;50.800;4.342;2023-07-20T08:53:00;20.30;99.90
34833;DHT22;55941;50.800;4.342;2023-07-20T08:55:27;20.40;99.90
34833;DHT22;55941;50.800;4.342;2023-07-20T08:57:59;20.60;99.90
34833;DHT22;55941;50.800;4.342;2023-07-20T09:00:27;20.70;99.90
34833;DHT22;55941;50.800;4.342;2023-07-20T09:02:55;20.50;99.90
34833;DHT22;55941;50.800;4.342;2023-07-20T09:05:24;20.60;99.90
34833;DHT22;55941;50.800;4.342;2023-07-20T09:07:53;20.70;99.90
34833;DHT22;55941;50.800;4.342;2023-07-20T09:10:23;21.00;99.90
34833;DHT22;55941;50.800;4.342;2023-07-20T09:12:49;21.10;99.90
34833;DHT22;55941;50.800;4.342;2023-07-20T09:15:16;21.00;99.90
34833;DHT22;55941;50.800;4.342;2023-07-20T09:17:48;20.90;99.90
34833;DHT22;55941;50.800;4.342;2023-07-20T09:20:16;20.90;99.90
34833;DHT22;55941;50.800;4.342;2023-07-20T09:22:43;20.90;99.90
34833;DHT22;55941;50.800;4.342;2023-07-20T09:25:17;21.10;99.90
34833;DHT22;55941;50.800;4.342;2023-07-20T09:27:49;21.30;99.90
34833;DHT22;55941;50.800;4.342;2023-07-20T09:30:16;21.60;99.90
34833;DHT22;55941;50.800;4.342;2023-07-20T09:32:46;21.80;99.90
34833;DHT22;55941;50.800;4.342;2023-07-20T09:35:16;22.10;99.90
34833;DHT22;55941;50.800;4.342;2023-07-20T09:37:59;22.30;99.90
34833;DHT22;55941;50.800;4.342;2023-07-20T09:40:28;22.60;99.90
34833;DHT22;55941;50.800;4.342;2023-07-20T09:42:55;22.60;99.90
34833;DHT22;55941;50.800;4.342;2023-07-20T09:45:40;22.40;99.90
34833;DHT22;55941;50.800;4.342;2023-07-20T09:48:08;22.40;99.90
34833;DHT22;55941;50.800;4.342;2023-07-20T09:50:56;22.30;99.90
34833;DHT22;55941;50.800;4.342;2023-07-20T09:53:25;22.40;99.90
34833;DHT22;55941;50.800;4.342;2023-07-20T09:55:52;22.40;99.90
34833;DHT22;55941;50.800;4.342;2023-07-20T09:58:21;22.30;99.90
34833;DHT22;55941;50.800;4.342;2023-07-20T10:00:51;22.40;99.90
34833;DHT22;55941;50.800;4.342;2023-07-20T10:03:28;22.50;99.90
34833;DHT22;55941;50.800;4.342;2023-07-20T10:05:58;22.80;99.90
34833;DHT22;55941;50.800;4.342;2023-07-20T10:08:26;22.90;99.90
34833;DHT22;55941;50.800;4.342;2023-07-20T10:10:54;22.60;99.90
34833;DHT22;55941;50.800;4.342;2023-07-20T10:13:26;22.40;99.90
34833;DHT22;55941;50.800;4.342;2023-07-20T10:16:03;22.30;99.90
34833;DHT22;55941;50.800;4.342;2023-07-20T10:18:37;22.40;99.90
34833;DHT22;55941;50.800;4.342;2023-07-20T10:21:06;22.50;99.90
34833;DHT22;55941;50.800;4.342;2023-07-20T10:23:33;22.70;99.90
34833;DHT22;55941;50.800;4.342;2023-07-20T10:26:01;22.80;99.90
34833;DHT22;55941;50.800;4.342;2023-07-20T10:28:28;22.90;99.90
34833;DHT22;55941;50.800;4.342;2023-07-20T10:30:54;23.00;99.90
34833;DHT22;55941;50.800;4.342;2023-07-20T10:33:20;23.20;99.90
34833;DHT22;55941;50.800;4.342;2023-07-20T10:36:01;23.20;99.90
34833;DHT22;55941;50.800;4.342;2023-07-20T10:38:52;23.20;99.90
34833;DHT22;55941;50.800;4.342;2023-07-20T10:41:28;23.20;99.90
34833;DHT22;55941;50.800;4.342;2023-07-20T10:44:02;23.00;99.90
34833;DHT22;55941;50.800;4.342;2023-07-20T10:49:08;23.00;99.90
34833;DHT22;55941;50.800;4.342;2023-07-20T10:51:42;23.30;99.90
34833;DHT22;55941;50.800;4.342;2023-07-20T10:56:56;23.50;98.90
34833;DHT22;55941;50.800;4.342;2023-07-20T11:01:55;23.50;99.00
34833;DHT22;55941;50.800;4.342;2023-07-20T11:04:38;23.60;99.10
34833;DHT22;55941;50.800;4.342;2023-07-20T11:07:05;23.50;98.40
34833;DHT22;55941;50.800;4.342;2023-07-20T11:09:37;23.90;98.10
34833;DHT22;55941;50.800;4.342;2023-07-20T11:12:13;24.20;98.00
34833;DHT22;55941;50.800;4.342;2023-07-20T11:14:54;24.60;97.10
34833;DHT22;55941;50.800;4.342;2023-07-20T11:17:21;24.70;96.50
34833;DHT22;55941;50.800;4.342;2023-07-20T11:20:04;24.80;95.40
34833;DHT22;55941;50.800;4.342;2023-07-20T11:22:33;25.20;95.80
34833;DHT22;55941;50.800;4.342;2023-07-20T11:24:59;25.60;95.50
34833;DHT22;55941;50.800;4.342;2023-07-20T11:27:25;25.70;94.60
34833;DHT22;55941;50.800;4.342;2023-07-20T11:29:51;25.80;94.50
34833;DHT22;55941;50.800;4.342;2023-07-20T11:32:21;25.90;94.30
34833;DHT22;55941;50.800;4.342;2023-07-20T11:34:48;25.60;94.20
34833;DHT22;55941;50.800;4.342;2023-07-20T11:37:13;25.10;94.10
34833;DHT22;55941;50.800;4.342;2023-07-20T11:39:39;24.60;94.30
34833;DHT22;55941;50.800;4.342;2023-07-20T11:42:05;24.20;95.70
34833;DHT22;55941;50.800;4.342;2023-07-20T11:44:32;24.10;96.30
34833;DHT22;55941;50.800;4.342;2023-07-20T11:47:08;24.20;95.90
34833;DHT22;55941;50.800;4.342;2023-07-20T11:49:41;24.50;96.00
34833;DHT22;55941;50.800;4.342;2023-07-20T11:52:09;25.10;95.10
34833;DHT22;55941;50.800;4.342;2023-07-20T11:54:36;25.40;94.10
34833;DHT22;55941;50.800;4.342;2023-07-20T11:57:03;25.40;94.80
34833;DHT22;55941;50.800;4.342;2023-07-20T11:59:30;25.30;93.80
34833;DHT22;55941;50.800;4.342;2023-07-20T12:01:57;25.40;93.80
34833;DHT22;55941;50.800;4.342;2023-07-20T12:04:23;25.90;94.00
34833;DHT22;55941;50.800;4.342;2023-07-20T12:06:49;26.40;93.20
34833;DHT22;55941;50.800;4.342;2023-07-20T12:09:16;26.50;92.30
34833;DHT22;55941;50.800;4.342;2023-07-20T12:11:43;26.30;92.10
34833;DHT22;55941;50.800;4.342;2023-07-20T12:14:10;25.70;92.00
34833;DHT22;55941;50.800;4.342;2023-07-20T12:16:37;25.60;92.70
34833;DHT22;55941;50.800;4.342;2023-07-20T12:19:08;25.60;93.10
34833;DHT22;55941;50.800;4.342;2023-07-20T12:21:35;25.70;92.50
34833;DHT22;55941;50.800;4.342;2023-07-20T12:24:05;25.80;92.60
34833;DHT22;55941;50.800;4.342;2023-07-20T12:26:32;26.00;93.10
34833;DHT22;55941;50.800;4.342;2023-07-20T12:29:00;26.70;92.10
34833;DHT22;55941;50.800;4.342;2023-07-20T12:31:26;27.40;91.40
34833;DHT22;55941;50.800;4.342;2023-07-20T12:33:53;27.60;90.90
34833;DHT22;55941;50.800;4.342;2023-07-20T12:36:21;27.70;91.10
34833;DHT22;55941;50.800;4.342;2023-07-20T12:38:47;27.80;90.90
34833;DHT22;55941;50.800;4.342;2023-07-20T12:41:13;28.00;91.30
34833;DHT22;55941;50.800;4.342;2023-07-20T12:43:43;27.90;89.90
34833;DHT22;55941;50.800;4.342;2023-07-20T12:46:10;27.70;90.10
34833;DHT22;55941;50.800;4.342;2023-07-20T12:48:37;27.40;89.80
34833;DHT22;55941;50.800;4.342;2023-07-20T12:51:05;26.60;90.40
34833;DHT22;55941;50.800;4.342;2023-07-20T12:53:31;25.90;90.80
34833;DHT22;55941;50.800;4.342;2023-07-20T12:55:58;25.30;91.10
34833;DHT22;55941;50.800;4.342;2023-07-20T12:58:24;24.70;92.10
34833;DHT22;55941;50.800;4.342;2023-07-20T13:00:50;24.20;93.10
34833;DHT22;55941;50.800;4.342;2023-07-20T13:03:15;23.90;93.80
34833;DHT22;55941;50.800;4.342;2023-07-20T13:05:44;23.60;94.30
34833;DHT22;55941;50.800;4.342;2023-07-20T13:08:09;23.30;94.80
34833;DHT22;55941;50.800;4.342;2023-07-20T13:10:36;23.10;95.40
34833;DHT22;55941;50.800;4.342;2023-07-20T13:13:02;23.10;95.50
34833;DHT22;55941;50.800;4.342;2023-07-20T13:15:32;23.00;95.50
34833;DHT22;55941;50.800;4.342;2023-07-20T13:18:05;22.90;95.90
34833;DHT22;55941;50.800;4.342;2023-07-20T13:20:31;22.80;96.30
34833;DHT22;55941;50.800;4.342;2023-07-20T13:22:57;22.60;96.90
34833;DHT22;55941;50.800;4.342;2023-07-20T13:25:22;22.70;97.10
34833;DHT22;55941;50.800;4.342;2023-07-20T13:27:48;22.90;97.50
34833;DHT22;55941;50.800;4.342;2023-07-20T13:30:14;23.00;98.50
34833;DHT22;55941;50.800;4.342;2023-07-20T13:32:43;23.20;99.90
34833;DHT22;55941;50.800;4.342;2023-07-20T13:35:09;23.30;99.40
34833;DHT22;55941;50.800;4.342;2023-07-20T13:37:35;23.60;99.00
34833;DHT22;55941;50.800;4.342;2023-07-20T13:40:01;23.70;98.20
34833;DHT22;55941;50.800;4.342;2023-07-20T13:42:27;23.80;97.40
34833;DHT22;55941;50.800;4.342;2023-07-20T13:44:52;24.10;96.60
34833;DHT22;55941;50.800;4.342;2023-07-20T13:47:18;24.30;96.60
34833;DHT22;55941;50.800;4.342;2023-07-20T13:49:44;24.30;96.00
34833;DHT22;55941;50.800;4.342;2023-07-20T13:52:09;24.50;95.80
34833;DHT22;55941;50.800;4.342;2023-07-20T13:54:35;24.80;96.10
34833;DHT22;55941;50.800;4.342;2023-07-20T13:57:01;25.30;94.60
34833;DHT22;55941;50.800;4.342;2023-07-20T13:59:28;25.50;94.40
34833;DHT22;55941;50.800;4.342;2023-07-20T14:01:53;25.80;94.10
34833;DHT22;55941;50.800;4.342;2023-07-20T14:04:19;26.20;93.50
34833;DHT22;55941;50.800;4.342;2023-07-20T14:06:45;26.20;93.20
34833;DHT22;55941;50.800;4.342;2023-07-20T14:09:10;26.40;92.80
34833;DHT22;55941;50.800;4.342;2023-07-20T14:11:36;27.00;92.30
34833;DHT22;55941;50.800;4.342;2023-07-20T14:14:01;27.20;91.30
34833;DHT22;55941;50.800;4.342;2023-07-20T14:16:27;27.70;90.90
34833;DHT22;55941;50.800;4.342;2023-07-20T14:18:53;28.60;90.20
34833;DHT22;55941;50.800;4.342;2023-07-20T14:21:20;29.40;87.20
34833;DHT22;55941;50.800;4.342;2023-07-20T14:23:47;30.30;88.00
34833;DHT22;55941;50.800;4.342;2023-07-20T14:26:13;30.60;83.00
34833;DHT22;55941;50.800;4.342;2023-07-20T14:28:39;31.20;82.20
34833;DHT22;55941;50.800;4.342;2023-07-20T14:31:05;31.70;81.20
34833;DHT22;55941;50.800;4.342;2023-07-20T14:33:31;31.90;77.60
34833;DHT22;55941;50.800;4.342;2023-07-20T14:35:57;32.10;75.90
34833;DHT22;55941;50.800;4.342;2023-07-20T14:38:22;31.90;74.80
34833;DHT22;55941;50.800;4.342;2023-07-20T14:40:48;32.10;74.20
34833;DHT22;55941;50.800;4.342;2023-07-20T14:43:15;32.20;73.50
34833;DHT22;55941;50.800;4.342;2023-07-20T14:45:41;31.90;73.80
34833;DHT22;55941;50.800;4.342;2023-07-20T14:48:07;31.70;74.30
34833;DHT22;55941;50.800;4.342;2023-07-20T14:50:33;31.90;73.70
34833;DHT22;55941;50.800;4.342;2023-07-20T14:52:59;31.90;72.40
34833;DHT22;55941;50.800;4.342;2023-07-20T14:55:25;31.50;72.90
34833;DHT22;55941;50.800;4.342;2023-07-20T14:57:51;30.90;74.30
34833;DHT22;55941;50.800;4.342;2023-07-20T15:00:18;30.50;74.40
34833;DHT22;55941;50.800;4.342;2023-07-20T15:02:44;29.80;75.10
34833;DHT22;55941;50.800;4.342;2023-07-20T15:05:10;29.40;77.10
34833;DHT22;55941;50.800;4.342;2023-07-20T15:07:36;29.00;77.90
34833;DHT22;55941;50.800;4.342;2023-07-20T15:10:06;28.80;78.70
34833;DHT22;55941;50.800;4.342;2023-07-20T15:12:32;28.40;79.20
34833;DHT22;55941;50.800;4.342;2023-07-20T15:15:04;28.00;80.30
34833;DHT22;55941;50.800;4.342;2023-07-20T15:17:33;27.70;81.50
34833;DHT22;55941;50.800;4.342;2023-07-20T15:20:00;27.50;82.10
34833;DHT22;55941;50.800;4.342;2023-07-20T15:22:30;27.10;82.80
34833;DHT22;55941;50.800;4.342;2023-07-20T15:24:56;26.90;84.50
34833;DHT22;55941;50.800;4.342;2023-07-20T15:27:22;26.70;84.10
34833;DHT22;55941;50.800;4.342;2023-07-20T15:29:48;26.40;85.30
34833;DHT22;55941;50.800;4.342;2023-07-20T15:32:14;26.20;87.10
34833;DHT22;55941;50.800;4.342;2023-07-20T15:34:42;25.90;87.70
34833;DHT22;55941;50.800;4.342;2023-07-20T15:37:08;25.70;88.40
34833;DHT22;55941;50.800;4.342;2023-07-20T15:39:35;25.50;89.60
34833;DHT22;55941;50.800;4.342;2023-07-20T15:42:01;25.30;91.70
34833;DHT22;55941;50.800;4.342;2023-07-20T15:44:27;25.00;93.70